Thawville, Illinois
Current Conditions -  °F | °C
As of 11:30 AM on Monday 24 Nov 2014 (Local Time) from KTIP Reporting Station
Haze Haze  
Wind Chill: 24°   Ceiling: 1100
Heat Index: 36°   Visibility: 3mi
Dew Point: 33°   Wind: 24mph
Humidity: 90%   Direction: 250°WSW
Pressure: 29.52"   Gusts: 35mph
Location:  40.68°N, 88.12°W
Report Text: KTIP 241730Z AUTO 25021G30KT 3SM BR BKN011 OVC015 02/01 A2952 RMK AO2 T00200005
Loading
Personal Weather Stations






























Interactive Weather Map New forecast layout! Learn more

10-Day Weather Forecast

Advertisements
Track Severe Weather on mobile